»·PEaware :: N4987R L71-KOXR

N4987R :: L71-KOXR

FLIGHT INFORMATION

Flight Status: Arrived
Operator: Privately registered:
United States
More flights under this callsign
Pilot: Jonathan F. (6622)
Aircraft: CESSNA 182 SKYLANE
(C182)
More flights by this aircraft type
Origin: L71 California City Mun
United States
Destination: KOXR Oxnard
United States
More flights between these airports :: More routes between these airports
Route: +L71 PMD V386 FIM CUDAK KOXR
File this flight plan on PilotEdge
Remarks:
Altitude:
(Current/Filed)
13,000ft
Speed:
(Current/Filed)
120kts
Departed: 18-Apr-15 11:07 AM
Arrived: 18-Apr-15 11:53 AM
Distance/Time
Traveled:
82nm/0:46
Distance/Time
To Go:
Arrived

Flight Plot

Page will automatically refresh every two minutes.

Flight plan parsing failed; only flown route is shown


Map Options




Map Legend


Flown Route
Filed Route
Departure Airport
Arrival Airport
Navaid (VOR, NDB)
Fix

Horizontal Profiles

Position Reports

Time Latitude Longitude Heading Altitude Ground
Speed
18-Apr-15 10:55 35.149994 -118.015166 168 2457ft 0kts
18-Apr-15 10:56 35.149994 -118.015166 168 2457ft 0kts
18-Apr-15 10:57 35.149994 -118.015166 168 2457ft 0kts
18-Apr-15 10:58 35.149994 -118.015166 168 2457ft 0kts
18-Apr-15 10:59 35.153071 -118.006932 356 2457ft 0kts
18-Apr-15 11:00 35.153076 -118.006932 356 2457ft 0kts
18-Apr-15 11:01 35.153080 -118.006933 356 2457ft 0kts
18-Apr-15 11:02 35.153084 -118.006933 356 2457ft 0kts
18-Apr-15 11:03 35.153089 -118.006933 356 2457ft 0kts
18-Apr-15 11:04 35.153266 -118.007093 283 2457ft 7kts
18-Apr-15 11:05 35.150959 -118.017869 254 2550ft 92kts
18-Apr-15 11:06 35.130855 -118.032416 181 3545ft 89kts
18-Apr-15 11:07 35.107593 -118.033687 183 4565ft 82kts
18-Apr-15 11:08 35.083757 -118.035253 180 5473ft 86kts
18-Apr-15 11:09 35.058818 -118.033818 171 6475ft 91kts
18-Apr-15 11:10 35.032979 -118.034284 187 7706ft 94kts
18-Apr-15 11:11 35.006989 -118.038023 188 8877ft 91kts
18-Apr-15 11:12 34.981439 -118.041859 182 9723ft 93kts
18-Apr-15 11:13 34.955522 -118.044417 180 10569ft 91kts
18-Apr-15 11:14 34.929496 -118.045677 183 11378ft 93kts
18-Apr-15 11:15 34.903353 -118.049723 192 11938ft 98kts
18-Apr-15 11:16 34.877525 -118.051440 181 12678ft 93kts
18-Apr-15 11:17 34.850474 -118.054399 183 12999ft 107kts
18-Apr-15 11:18 34.816950 -118.059321 185 13076ft 143kts
18-Apr-15 11:19 34.774345 -118.062954 184 13037ft 158kts
18-Apr-15 11:20 34.730887 -118.065255 182 13093ft 155kts
18-Apr-15 11:21 34.687252 -118.068675 184 13060ft 157kts
18-Apr-15 11:22 34.644894 -118.073315 183 13022ft 139kts
18-Apr-15 11:23 34.608483 -118.076414 235 13278ft 146kts
18-Apr-15 11:24 34.604981 -118.127764 269 13236ft 159kts
18-Apr-15 11:25 34.594377 -118.178972 254 13016ft 153kts
18-Apr-15 11:26 34.580933 -118.227434 249 12991ft 151kts
18-Apr-15 11:27 34.564058 -118.274449 245 12956ft 150kts
18-Apr-15 11:28 34.546923 -118.320828 247 13107ft 156kts
18-Apr-15 11:29 34.529762 -118.368272 246 12997ft 147kts
18-Apr-15 11:30 34.503188 -118.407243 216 12724ft 164kts
18-Apr-15 11:31 34.466575 -118.441851 218 12151ft 163kts
18-Apr-15 11:32 34.432255 -118.475757 218 11462ft 156kts
18-Apr-15 11:33 34.397389 -118.507107 216 10476ft 154kts
18-Apr-15 11:34 34.368624 -118.544388 229 9896ft 151kts
18-Apr-15 11:35 34.340388 -118.580784 226 9189ft 148kts
18-Apr-15 11:36 34.311467 -118.616490 226 7900ft 145kts
18-Apr-15 11:37 34.282237 -118.650310 224 6850ft 143kts
18-Apr-15 11:38 34.252837 -118.683899 225 5999ft 151kts
18-Apr-15 11:39 34.221099 -118.717944 224 5930ft 154kts
18-Apr-15 11:40 34.190265 -118.752670 227 5978ft 153kts
18-Apr-15 11:41 34.172053 -118.794786 275 5748ft 152kts
18-Apr-15 11:42 34.179923 -118.846205 284 5187ft 157kts
18-Apr-15 11:43 34.195484 -118.896243 290 4885ft 159kts
18-Apr-15 11:44 34.206151 -118.948398 284 4291ft 154kts
18-Apr-15 11:45 34.209393 -118.997332 269 4090ft 138kts
18-Apr-15 11:46 34.202485 -119.041474 258 4144ft 138kts
18-Apr-15 11:47 34.198793 -119.086747 270 3869ft 134kts
18-Apr-15 11:48 34.199797 -119.126743 272 2730ft 117kts
18-Apr-15 11:49 34.200381 -119.164866 270 1408ft 102kts
18-Apr-15 11:50 34.200658 -119.195001 272 274ft 84kts
18-Apr-15 11:51 34.200788 -119.211115 266 46ft 5kts
18-Apr-15 11:52 34.200122 -119.212277 239 46ft 12kts
18-Apr-15 11:53 34.199278 -119.211001 178 46ft 0kts

Navigation Log

Ident Type
Flight plan parsing failed, navigation log unavailable